sensor_id;sensor_type;location;lat;lon;timestamp;pressure;altitude;pressure_sealevel;temperature
42119;BMP280;27783;42.782;23.274;2022-08-04T00:00:17;95655.88;;;21.64
42119;BMP280;27783;42.782;23.274;2022-08-04T00:06:04;95657.81;;;21.64
42119;BMP280;27783;42.782;23.274;2022-08-04T00:08:57;95655.88;;;21.64
42119;BMP280;27783;42.782;23.274;2022-08-04T00:11:45;95664.81;;;21.61
42119;BMP280;27783;42.782;23.274;2022-08-04T00:14:14;95655.28;;;21.60
42119;BMP280;27783;42.782;23.274;2022-08-04T00:16:43;95656.16;;;21.57
42119;BMP280;27783;42.782;23.274;2022-08-04T00:19:14;95654.38;;;21.54
42119;BMP280;27783;42.782;23.274;2022-08-04T00:21:46;95658.72;;;21.52
42119;BMP280;27783;42.782;23.274;2022-08-04T00:24:22;95663.03;;;21.50
42119;BMP280;27783;42.782;23.274;2022-08-04T00:26:48;95654.38;;;21.54
42119;BMP280;27783;42.782;23.274;2022-08-04T00:29:17;95654.84;;;21.53
42119;BMP280;27783;42.782;23.274;2022-08-04T00:31:43;95663.19;;;21.55
42119;BMP280;27783;42.782;23.274;2022-08-04T00:34:11;95667.19;;;21.51
42119;BMP280;27783;42.782;23.274;2022-08-04T00:36:42;95670.19;;;21.35
42119;BMP280;27783;42.782;23.274;2022-08-04T00:39:12;95667.19;;;21.33
42119;BMP280;27783;42.782;23.274;2022-08-04T00:45:07;95666.59;;;21.29
42119;BMP280;27783;42.782;23.274;2022-08-04T00:54:11;95665.25;;;21.25
42119;BMP280;27783;42.782;23.274;2022-08-04T01:16:59;95670.28;;;21.14
42119;BMP280;27783;42.782;23.274;2022-08-04T01:28:59;95681.16;;;21.11
42119;BMP280;27783;42.782;23.274;2022-08-04T01:34:13;95684.44;;;21.06
42119;BMP280;27783;42.782;23.274;2022-08-04T01:36:44;95681.28;;;21.07
42119;BMP280;27783;42.782;23.274;2022-08-04T01:39:13;95675.63;;;21.05
42119;BMP280;27783;42.782;23.274;2022-08-04T01:42:12;95686.44;;;20.93
42119;BMP280;27783;42.782;23.274;2022-08-04T01:44:42;95684.19;;;20.92
42119;BMP280;27783;42.782;23.274;2022-08-04T01:47:34;95677.03;;;20.89
42119;BMP280;27783;42.782;23.274;2022-08-04T01:50:20;95677.34;;;20.91
42119;BMP280;27783;42.782;23.274;2022-08-04T01:52:47;95674.38;;;20.89
42119;BMP280;27783;42.782;23.274;2022-08-04T01:55:14;95669.44;;;20.87
42119;BMP280;27783;42.782;23.274;2022-08-04T01:57:46;95677.94;;;20.86
42119;BMP280;27783;42.782;23.274;2022-08-04T02:00:16;95675.38;;;20.83
42119;BMP280;27783;42.782;23.274;2022-08-04T02:03:05;95670.72;;;20.74
42119;BMP280;27783;42.782;23.274;2022-08-04T02:05:30;95668.94;;;20.71
42119;BMP280;27783;42.782;23.274;2022-08-04T02:11:11;95670.56;;;20.69
42119;BMP280;27783;42.782;23.274;2022-08-04T02:14:11;95674.44;;;20.68
42119;BMP280;27783;42.782;23.274;2022-08-04T02:16:59;95673.09;;;20.64
42119;BMP280;27783;42.782;23.274;2022-08-04T02:19:45;95667.88;;;20.60
42119;BMP280;27783;42.782;23.274;2022-08-04T02:22:21;95670.84;;;20.62
42119;BMP280;27783;42.782;23.274;2022-08-04T02:24:53;95670.56;;;20.60
42119;BMP280;27783;42.782;23.274;2022-08-04T02:27:28;95668.75;;;20.57
42119;BMP280;27783;42.782;23.274;2022-08-04T02:30:07;95674.13;;;20.57
42119;BMP280;27783;42.782;23.274;2022-08-04T02:32:35;95678.72;;;20.57
42119;BMP280;27783;42.782;23.274;2022-08-04T02:35:19;95683.63;;;20.58
42119;BMP280;27783;42.782;23.274;2022-08-04T02:38:10;95671.13;;;20.55
42119;BMP280;27783;42.782;23.274;2022-08-04T02:40:39;95673.38;;;20.57
42119;BMP280;27783;42.782;23.274;2022-08-04T02:43:16;95680.50;;;20.60
42119;BMP280;27783;42.782;23.274;2022-08-04T02:45:45;95665.63;;;20.59
42119;BMP280;27783;42.782;23.274;2022-08-04T02:48:21;95680.31;;;20.54
42119;BMP280;27783;42.782;23.274;2022-08-04T02:50:48;95677.00;;;20.42
42119;BMP280;27783;42.782;23.274;2022-08-04T02:53:17;95682.31;;;20.33
42119;BMP280;27783;42.782;23.274;2022-08-04T02:55:47;95674.84;;;20.28
42119;BMP280;27783;42.782;23.274;2022-08-04T02:58:19;95671.75;;;20.30
42119;BMP280;27783;42.782;23.274;2022-08-04T03:00:49;95676.66;;;20.31
42119;BMP280;27783;42.782;23.274;2022-08-04T03:03:37;95669.81;;;20.30
42119;BMP280;27783;42.782;23.274;2022-08-04T03:29:08;95675.53;;;19.99
42119;BMP280;27783;42.782;23.274;2022-08-04T03:46:48;95680.63;;;20.06
42119;BMP280;27783;42.782;23.274;2022-08-04T03:49:52;95680.09;;;20.11
42119;BMP280;27783;42.782;23.274;2022-08-04T04:01:09;95698.44;;;20.21
42119;BMP280;27783;42.782;23.274;2022-08-04T04:17:46;95691.88;;;20.43
42119;BMP280;27783;42.782;23.274;2022-08-04T04:29:03;95690.78;;;20.61
42119;BMP280;27783;42.782;23.274;2022-08-04T04:32:22;95698.13;;;20.70
42119;BMP280;27783;42.782;23.274;2022-08-04T04:35:18;95698.72;;;20.73
42119;BMP280;27783;42.782;23.274;2022-08-04T04:37:56;95705.13;;;20.76
42119;BMP280;27783;42.782;23.274;2022-08-04T04:40:51;95700.81;;;20.78
42119;BMP280;27783;42.782;23.274;2022-08-04T04:51:43;95696.56;;;20.98
42119;BMP280;27783;42.782;23.274;2022-08-04T04:57:36;95708.69;;;21.11
42119;BMP280;27783;42.782;23.274;2022-08-04T05:00:07;95704.97;;;21.09
42119;BMP280;27783;42.782;23.274;2022-08-04T05:13:52;95712.81;;;21.42
42119;BMP280;27783;42.782;23.274;2022-08-04T05:16:31;95708.03;;;21.46
42119;BMP280;27783;42.782;23.274;2022-08-04T05:22:11;95707.28;;;21.54
42119;BMP280;27783;42.782;23.274;2022-08-04T05:25:06;95710.72;;;21.63
42119;BMP280;27783;42.782;23.274;2022-08-04T05:28:04;95711.66;;;21.69
42119;BMP280;27783;42.782;23.274;2022-08-04T05:30:52;95706.13;;;21.72
42119;BMP280;27783;42.782;23.274;2022-08-04T05:33:25;95708.19;;;21.77
42119;BMP280;27783;42.782;23.274;2022-08-04T05:35:58;95716.44;;;21.83
42119;BMP280;27783;42.782;23.274;2022-08-04T05:38:30;95715.81;;;21.96
42119;BMP280;27783;42.782;23.274;2022-08-04T05:40:58;95720.00;;;22.06
42119;BMP280;27783;42.782;23.274;2022-08-04T05:43:30;95724.16;;;22.16
42119;BMP280;27783;42.782;23.274;2022-08-04T05:45:57;95724.16;;;22.24
42119;BMP280;27783;42.782;23.274;2022-08-04T05:48:42;95713.56;;;22.30
42119;BMP280;27783;42.782;23.274;2022-08-04T05:51:11;95710.72;;;22.33
42119;BMP280;27783;42.782;23.274;2022-08-04T05:53:58;95718.63;;;22.37
42119;BMP280;27783;42.782;23.274;2022-08-04T05:56:25;95721.47;;;22.42
42119;BMP280;27783;42.782;23.274;2022-08-04T05:59:06;95715.91;;;22.45
42119;BMP280;27783;42.782;23.274;2022-08-04T06:01:34;95716.66;;;22.46
42119;BMP280;27783;42.782;23.274;2022-08-04T06:04:02;95724.13;;;22.51
42119;BMP280;27783;42.782;23.274;2022-08-04T06:06:30;95734.56;;;22.57
42119;BMP280;27783;42.782;23.274;2022-08-04T06:08:57;95727.38;;;22.63
42119;BMP280;27783;42.782;23.274;2022-08-04T06:11:39;95731.69;;;22.70
42119;BMP280;27783;42.782;23.274;2022-08-04T06:14:07;95723.03;;;22.74
42119;BMP280;27783;42.782;23.274;2022-08-04T06:16:39;95725.09;;;22.79
42119;BMP280;27783;42.782;23.274;2022-08-04T06:19:11;95721.91;;;22.89
42119;BMP280;27783;42.782;23.274;2022-08-04T06:21:40;95723.38;;;22.99
42119;BMP280;27783;42.782;23.274;2022-08-04T06:24:10;95714.97;;;23.06
42119;BMP280;27783;42.782;23.274;2022-08-04T06:26:36;95720.00;;;23.13
42119;BMP280;27783;42.782;23.274;2022-08-04T06:29:03;95726.69;;;23.26
42119;BMP280;27783;42.782;23.274;2022-08-04T06:31:45;95722.88;;;23.41
42119;BMP280;27783;42.782;23.274;2022-08-04T06:34:25;95724.03;;;23.49
42119;BMP280;27783;42.782;23.274;2022-08-04T06:36:52;95712.91;;;23.55
42119;BMP280;27783;42.782;23.274;2022-08-04T06:39:21;95711.06;;;23.61
42119;BMP280;27783;42.782;23.274;2022-08-04T06:41:49;95712.66;;;23.68
42119;BMP280;27783;42.782;23.274;2022-08-04T06:44:16;95714.84;;;23.78
42119;BMP280;27783;42.782;23.274;2022-08-04T06:46:43;95708.50;;;23.89
42119;BMP280;27783;42.782;23.274;2022-08-04T06:49:11;95709.00;;;24.02
42119;BMP280;27783;42.782;23.274;2022-08-04T06:52:01;95709.00;;;24.02
42119;BMP280;27783;42.782;23.274;2022-08-04T06:54:27;95708.25;;;24.02
42119;BMP280;27783;42.782;23.274;2022-08-04T06:56:55;95709.91;;;23.99
42119;BMP280;27783;42.782;23.274;2022-08-04T06:59:24;95706.56;;;24.04
42119;BMP280;27783;42.782;23.274;2022-08-04T07:01:51;95709.22;;;24.13
42119;BMP280;27783;42.782;23.274;2022-08-04T07:04:17;95708.84;;;24.20
42119;BMP280;27783;42.782;23.274;2022-08-04T07:06:44;95709.69;;;24.25
42119;BMP280;27783;42.782;23.274;2022-08-04T07:09:11;95714.13;;;24.28
42119;BMP280;27783;42.782;23.274;2022-08-04T07:11:41;95711.44;;;24.28
42119;BMP280;27783;42.782;23.274;2022-08-04T07:14:08;95708.94;;;24.39
42119;BMP280;27783;42.782;23.274;2022-08-04T07:16:35;95708.66;;;24.51
42119;BMP280;27783;42.782;23.274;2022-08-04T07:19:02;95701.16;;;24.55
42119;BMP280;27783;42.782;23.274;2022-08-04T07:21:28;95706.81;;;24.57
42119;BMP280;27783;42.782;23.274;2022-08-04T07:23:55;95702.09;;;24.52
42119;BMP280;27783;42.782;23.274;2022-08-04T07:26:27;95702.19;;;24.57
42119;BMP280;27783;42.782;23.274;2022-08-04T07:28:53;95697.34;;;24.61
42119;BMP280;27783;42.782;23.274;2022-08-04T07:31:20;95696.59;;;24.61
42119;BMP280;27783;42.782;23.274;2022-08-04T07:33:48;95695.03;;;24.69
42119;BMP280;27783;42.782;23.274;2022-08-04T07:36:28;95690.81;;;24.82
42119;BMP280;27783;42.782;23.274;2022-08-04T07:38:54;95686.81;;;24.91
42119;BMP280;27783;42.782;23.274;2022-08-04T07:41:22;95690.00;;;25.09
42119;BMP280;27783;42.782;23.274;2022-08-04T07:43:48;95688.81;;;25.24
42119;BMP280;27783;42.782;23.274;2022-08-04T07:46:16;95690.16;;;25.34
42119;BMP280;27783;42.782;23.274;2022-08-04T07:48:41;95686.38;;;25.46
42119;BMP280;27783;42.782;23.274;2022-08-04T07:51:07;95683.81;;;25.57
42119;BMP280;27783;42.782;23.274;2022-08-04T07:53:38;95683.22;;;25.67
42119;BMP280;27783;42.782;23.274;2022-08-04T07:56:04;95679.00;;;25.80
42119;BMP280;27783;42.782;23.274;2022-08-04T07:58:30;95677.28;;;25.82
42119;BMP280;27783;42.782;23.274;2022-08-04T08:00:56;95681.28;;;25.87
42119;BMP280;27783;42.782;23.274;2022-08-04T08:03:24;95680.13;;;25.93
42119;BMP280;27783;42.782;23.274;2022-08-04T08:05:51;95680.16;;;25.98
42119;BMP280;27783;42.782;23.274;2022-08-04T08:08:16;95678.97;;;25.99
42119;BMP280;27783;42.782;23.274;2022-08-04T08:11:06;95689.09;;;26.04
42119;BMP280;27783;42.782;23.274;2022-08-04T08:13:33;95685.16;;;26.05
42119;BMP280;27783;42.782;23.274;2022-08-04T08:16:00;95681.78;;;26.10
42119;BMP280;27783;42.782;23.274;2022-08-04T08:18:27;95679.13;;;26.15
42119;BMP280;27783;42.782;23.274;2022-08-04T08:20:53;95680.41;;;26.20
42119;BMP280;27783;42.782;23.274;2022-08-04T08:23:21;95683.22;;;26.30
42119;BMP280;27783;42.782;23.274;2022-08-04T08:25:47;95684.75;;;26.37
42119;BMP280;27783;42.782;23.274;2022-08-04T08:28:12;95682.88;;;26.42
42119;BMP280;27783;42.782;23.274;2022-08-04T08:30:41;95685.91;;;26.50
42119;BMP280;27783;42.782;23.274;2022-08-04T08:33:08;95693.78;;;26.53
42119;BMP280;27783;42.782;23.274;2022-08-04T08:36:31;95685.47;;;26.57
42119;BMP280;27783;42.782;23.274;2022-08-04T08:39:23;95687.22;;;26.59
42119;BMP280;27783;42.782;23.274;2022-08-04T08:48:05;95682.84;;;26.67
42119;BMP280;27783;42.782;23.274;2022-08-04T08:53:11;95688.63;;;26.80
42119;BMP280;27783;42.782;23.274;2022-08-04T09:10:13;95667.03;;;27.21
42119;BMP280;27783;42.782;23.274;2022-08-04T09:19:22;95667.84;;;27.32
42119;BMP280;27783;42.782;23.274;2022-08-04T09:25:30;95655.06;;;27.43
42119;BMP280;27783;42.782;23.274;2022-08-04T09:28:04;95657.09;;;27.48
42119;BMP280;27783;42.782;23.274;2022-08-04T09:30:55;95661.34;;;27.59
42119;BMP280;27783;42.782;23.274;2022-08-04T09:46:57;95645.59;;;28.58
42119;BMP280;27783;42.782;23.274;2022-08-04T09:55:01;95630.31;;;28.81
42119;BMP280;27783;42.782;23.274;2022-08-04T10:00:17;95636.22;;;28.75
42119;BMP280;27783;42.782;23.274;2022-08-04T10:02:58;95628.84;;;28.70
42119;BMP280;27783;42.782;23.274;2022-08-04T10:08:17;95626.84;;;28.65
42119;BMP280;27783;42.782;23.274;2022-08-04T10:11:06;95625.84;;;28.62
42119;BMP280;27783;42.782;23.274;2022-08-04T10:16:23;95618.94;;;28.61
42119;BMP280;27783;42.782;23.274;2022-08-04T10:21:45;95622.16;;;28.65
42119;BMP280;27783;42.782;23.274;2022-08-04T10:24:32;95622.41;;;28.62
42119;BMP280;27783;42.782;23.274;2022-08-04T10:27:10;95619.19;;;28.58
42119;BMP280;27783;42.782;23.274;2022-08-04T10:29:44;95617.22;;;28.59
42119;BMP280;27783;42.782;23.274;2022-08-04T10:32:14;95618.94;;;28.56
42119;BMP280;27783;42.782;23.274;2022-08-04T10:34:47;95612.28;;;28.52
42119;BMP280;27783;42.782;23.274;2022-08-04T10:37:23;95613.53;;;28.45
42119;BMP280;27783;42.782;23.274;2022-08-04T10:40:04;95605.63;;;28.42
42119;BMP280;27783;42.782;23.274;2022-08-04T10:43:15;95604.66;;;28.40
42119;BMP280;27783;42.782;23.274;2022-08-04T10:48:58;95601.69;;;28.27
42119;BMP280;27783;42.782;23.274;2022-08-04T10:51:50;95606.09;;;28.19
42119;BMP280;27783;42.782;23.274;2022-08-04T10:54:28;95598.00;;;28.25
42119;BMP280;27783;42.782;23.274;2022-08-04T10:56:59;95594.78;;;28.37
42119;BMP280;27783;42.782;23.274;2022-08-04T10:59:34;95608.84;;;28.57
42119;BMP280;27783;42.782;23.274;2022-08-04T11:02:29;95593.81;;;28.77
42119;BMP280;27783;42.782;23.274;2022-08-04T11:07:44;95593.75;;;28.98
42119;BMP280;27783;42.782;23.274;2022-08-04T11:10:11;95583.88;;;29.06
42119;BMP280;27783;42.782;23.274;2022-08-04T11:12:41;95578.16;;;29.15
42119;BMP280;27783;42.782;23.274;2022-08-04T11:15:24;95575.69;;;29.27
42119;BMP280;27783;42.782;23.274;2022-08-04T11:18:06;95564.31;;;29.34
42119;BMP280;27783;42.782;23.274;2022-08-04T11:20:41;95561.78;;;29.47
42119;BMP280;27783;42.782;23.274;2022-08-04T11:23:15;95560.25;;;29.57
42119;BMP280;27783;42.782;23.274;2022-08-04T11:32:19;95558.84;;;29.90
42119;BMP280;27783;42.782;23.274;2022-08-04T11:34:55;95550.97;;;29.86
42119;BMP280;27783;42.782;23.274;2022-08-04T11:37:40;95559.66;;;29.74
42119;BMP280;27783;42.782;23.274;2022-08-04T11:40:22;95553.56;;;29.63
42119;BMP280;27783;42.782;23.274;2022-08-04T11:42:56;95559.78;;;29.53
42119;BMP280;27783;42.782;23.274;2022-08-04T11:45:34;95551.69;;;29.42
42119;BMP280;27783;42.782;23.274;2022-08-04T11:48:10;95556.41;;;29.31
42119;BMP280;27783;42.782;23.274;2022-08-04T11:50:43;95559.16;;;29.20
42119;BMP280;27783;42.782;23.274;2022-08-04T11:53:19;95568.31;;;29.12
42119;BMP280;27783;42.782;23.274;2022-08-04T11:55:49;95563.91;;;28.98
42119;BMP280;27783;42.782;23.274;2022-08-04T11:58:19;95557.50;;;28.85
42119;BMP280;27783;42.782;23.274;2022-08-04T12:04:09;95551.59;;;28.65
42119;BMP280;27783;42.782;23.274;2022-08-04T12:06:47;95558.53;;;28.61
42119;BMP280;27783;42.782;23.274;2022-08-04T12:12:38;95557.28;;;28.51
42119;BMP280;27783;42.782;23.274;2022-08-04T12:17:56;95553.59;;;28.49
42119;BMP280;27783;42.782;23.274;2022-08-04T12:20:28;95555.31;;;28.52
42119;BMP280;27783;42.782;23.274;2022-08-04T12:22:54;95552.38;;;28.60
42119;BMP280;27783;42.782;23.274;2022-08-04T12:25:29;95547.66;;;28.72
42119;BMP280;27783;42.782;23.274;2022-08-04T12:28:12;95551.59;;;28.87
42119;BMP280;27783;42.782;23.274;2022-08-04T12:30:45;95549.59;;;28.98
42119;BMP280;27783;42.782;23.274;2022-08-04T12:36:44;95538.41;;;29.28
42119;BMP280;27783;42.782;23.274;2022-08-04T12:42:09;95544.38;;;29.71
42119;BMP280;27783;42.782;23.274;2022-08-04T12:44:42;95537.28;;;30.02
42119;BMP280;27783;42.782;23.274;2022-08-04T12:47:11;95538.88;;;30.50
42119;BMP280;27783;42.782;23.274;2022-08-04T12:49:37;95524.63;;;31.37
42119;BMP280;27783;42.782;23.274;2022-08-04T12:52:05;95524.56;;;32.45
42119;BMP280;27783;42.782;23.274;2022-08-04T12:54:32;95518.56;;;33.02
42119;BMP280;27783;42.782;23.274;2022-08-04T12:57:00;95514.53;;;33.66
42119;BMP280;27783;42.782;23.274;2022-08-04T12:59:26;95514.16;;;34.28
42119;BMP280;27783;42.782;23.274;2022-08-04T13:01:52;95517.31;;;34.71
42119;BMP280;27783;42.782;23.274;2022-08-04T13:04:21;95518.63;;;34.58
42119;BMP280;27783;42.782;23.274;2022-08-04T13:06:56;95512.75;;;35.21
42119;BMP280;27783;42.782;23.274;2022-08-04T13:09:28;95512.81;;;35.70
42119;BMP280;27783;42.782;23.274;2022-08-04T13:12:03;95507.88;;;36.32
42119;BMP280;27783;42.782;23.274;2022-08-04T13:14:36;95506.84;;;36.64
42119;BMP280;27783;42.782;23.274;2022-08-04T13:17:04;95497.72;;;35.56
42119;BMP280;27783;42.782;23.274;2022-08-04T13:19:31;95500.59;;;34.62
42119;BMP280;27783;42.782;23.274;2022-08-04T13:21:59;95499.06;;;34.01
42119;BMP280;27783;42.782;23.274;2022-08-04T13:24:27;95504.16;;;33.52
42119;BMP280;27783;42.782;23.274;2022-08-04T13:27:01;95496.47;;;34.29
42119;BMP280;27783;42.782;23.274;2022-08-04T13:29:45;95491.69;;;34.89
42119;BMP280;27783;42.782;23.274;2022-08-04T13:32:19;95487.41;;;35.77
42119;BMP280;27783;42.782;23.274;2022-08-04T13:34:48;95481.16;;;36.18
42119;BMP280;27783;42.782;23.274;2022-08-04T13:37:14;95477.53;;;36.74
42119;BMP280;27783;42.782;23.274;2022-08-04T13:39:47;95470.47;;;37.31
42119;BMP280;27783;42.782;23.274;2022-08-04T13:42:24;95463.91;;;37.72
42119;BMP280;27783;42.782;23.274;2022-08-04T13:45:01;95463.66;;;37.92
42119;BMP280;27783;42.782;23.274;2022-08-04T13:47:34;95469.00;;;38.14
42119;BMP280;27783;42.782;23.274;2022-08-04T13:50:06;95463.50;;;38.45
42119;BMP280;27783;42.782;23.274;2022-08-04T13:52:33;95457.66;;;38.65
42119;BMP280;27783;42.782;23.274;2022-08-04T13:54:59;95450.84;;;38.83
42119;BMP280;27783;42.782;23.274;2022-08-04T13:57:42;95453.66;;;38.99
42119;BMP280;27783;42.782;23.274;2022-08-04T14:00:10;95455.47;;;39.04
42119;BMP280;27783;42.782;23.274;2022-08-04T14:02:59;95454.69;;;39.44
42119;BMP280;27783;42.782;23.274;2022-08-04T14:05:29;95451.25;;;39.53
42119;BMP280;27783;42.782;23.274;2022-08-04T14:10:21;95444.72;;;39.74
42119;BMP280;27783;42.782;23.274;2022-08-04T14:12:49;95442.28;;;39.61
42119;BMP280;27783;42.782;23.274;2022-08-04T14:15:39;95440.19;;;39.36
42119;BMP280;27783;42.782;23.274;2022-08-04T14:18:36;95443.06;;;39.45
42119;BMP280;27783;42.782;23.274;2022-08-04T14:21:07;95434.34;;;38.59
42119;BMP280;27783;42.782;23.274;2022-08-04T14:23:56;95434.69;;;37.38
42119;BMP280;27783;42.782;23.274;2022-08-04T14:26:31;95442.91;;;36.35
42119;BMP280;27783;42.782;23.274;2022-08-04T14:29:10;95439.94;;;35.54
42119;BMP280;27783;42.782;23.274;2022-08-04T14:31:38;95445.63;;;34.87
42119;BMP280;27783;42.782;23.274;2022-08-04T14:34:04;95443.25;;;34.37
42119;BMP280;27783;42.782;23.274;2022-08-04T14:36:42;95450.81;;;33.91
42119;BMP280;27783;42.782;23.274;2022-08-04T14:39:08;95449.69;;;33.54
42119;BMP280;27783;42.782;23.274;2022-08-04T14:41:48;95449.63;;;33.22
42119;BMP280;27783;42.782;23.274;2022-08-04T14:44:14;95450.06;;;32.88
42119;BMP280;27783;42.782;23.274;2022-08-04T14:46:50;95454.44;;;32.53
42119;BMP280;27783;42.782;23.274;2022-08-04T14:49:16;95462.66;;;32.22
42119;BMP280;27783;42.782;23.274;2022-08-04T14:54:09;95450.19;;;31.78
42119;BMP280;27783;42.782;23.274;2022-08-04T14:56:37;95439.34;;;31.60
42119;BMP280;27783;42.782;23.274;2022-08-04T14:59:09;95451.72;;;31.43
42119;BMP280;27783;42.782;23.274;2022-08-04T15:01:37;95452.13;;;31.29
42119;BMP280;27783;42.782;23.274;2022-08-04T15:04:06;95452.25;;;31.18
42119;BMP280;27783;42.782;23.274;2022-08-04T15:06:33;95448.41;;;31.09
42119;BMP280;27783;42.782;23.274;2022-08-04T15:09:05;95448.28;;;31.01
42119;BMP280;27783;42.782;23.274;2022-08-04T15:11:32;95444.13;;;30.95
42119;BMP280;27783;42.782;23.274;2022-08-04T15:13:59;95441.94;;;30.94
42119;BMP280;27783;42.782;23.274;2022-08-04T15:16:27;95440.66;;;31.18
42119;BMP280;27783;42.782;23.274;2022-08-04T15:18:53;95450.56;;;32.18
42119;BMP280;27783;42.782;23.274;2022-08-04T15:21:19;95445.59;;;33.35
42119;BMP280;27783;42.782;23.274;2022-08-04T15:23:47;95440.34;;;34.42
42119;BMP280;27783;42.782;23.274;2022-08-04T15:26:43;95431.69;;;35.47
42119;BMP280;27783;42.782;23.274;2022-08-04T15:29:25;95419.63;;;36.21
42119;BMP280;27783;42.782;23.274;2022-08-04T15:31:51;95415.75;;;36.75
42119;BMP280;27783;42.782;23.274;2022-08-04T15:34:19;95418.69;;;36.91
42119;BMP280;27783;42.782;23.274;2022-08-04T15:36:52;95421.91;;;37.19
42119;BMP280;27783;42.782;23.274;2022-08-04T15:39:33;95418.22;;;37.24
42119;BMP280;27783;42.782;23.274;2022-08-04T15:42:22;95418.53;;;36.24
42119;BMP280;27783;42.782;23.274;2022-08-04T15:47:40;95424.94;;;35.06
42119;BMP280;27783;42.782;23.274;2022-08-04T15:53:02;95426.94;;;34.32
42119;BMP280;27783;42.782;23.274;2022-08-04T15:55:40;95426.88;;;33.84
42119;BMP280;27783;42.782;23.274;2022-08-04T15:58:14;95427.63;;;33.40
42119;BMP280;27783;42.782;23.274;2022-08-04T16:16:49;95428.72;;;31.21
42119;BMP280;27783;42.782;23.274;2022-08-04T16:19:30;95425.09;;;31.13
42119;BMP280;27783;42.782;23.274;2022-08-04T16:22:00;95429.72;;;31.00
42119;BMP280;27783;42.782;23.274;2022-08-04T16:24:51;95424.69;;;30.86
42119;BMP280;27783;42.782;23.274;2022-08-04T16:27:39;95427.97;;;30.79
42119;BMP280;27783;42.782;23.274;2022-08-04T16:30:26;95437.22;;;30.71
42119;BMP280;27783;42.782;23.274;2022-08-04T16:32:54;95426.38;;;30.65
42119;BMP280;27783;42.782;23.274;2022-08-04T16:35:25;95437.81;;;30.64
42119;BMP280;27783;42.782;23.274;2022-08-04T16:38:14;95430.16;;;30.86
42119;BMP280;27783;42.782;23.274;2022-08-04T16:40:41;95437.81;;;31.05
42119;BMP280;27783;42.782;23.274;2022-08-04T16:43:15;95432.41;;;31.23
42119;BMP280;27783;42.782;23.274;2022-08-04T16:45:43;95429.81;;;31.30
42119;BMP280;27783;42.782;23.274;2022-08-04T16:48:20;95422.81;;;31.17
42119;BMP280;27783;42.782;23.274;2022-08-04T16:53:15;95436.13;;;31.02
42119;BMP280;27783;42.782;23.274;2022-08-04T16:55:48;95436.03;;;30.90
42119;BMP280;27783;42.782;23.274;2022-08-04T16:58:27;95436.72;;;30.72
42119;BMP280;27783;42.782;23.274;2022-08-04T17:00:55;95442.13;;;30.54
42119;BMP280;27783;42.782;23.274;2022-08-04T17:03:21;95443.53;;;30.37
42119;BMP280;27783;42.782;23.274;2022-08-04T17:05:46;95443.13;;;30.23
42119;BMP280;27783;42.782;23.274;2022-08-04T17:08:13;95453.41;;;30.11
42119;BMP280;27783;42.782;23.274;2022-08-04T17:10:52;95459.41;;;29.99
42119;BMP280;27783;42.782;23.274;2022-08-04T17:13:30;95449.66;;;29.86
42119;BMP280;27783;42.782;23.274;2022-08-04T17:16:23;95452.91;;;29.74
42119;BMP280;27783;42.782;23.274;2022-08-04T17:18:52;95456.69;;;29.65
42119;BMP280;27783;42.782;23.274;2022-08-04T17:21:24;95463.91;;;29.58
42119;BMP280;27783;42.782;23.274;2022-08-04T17:23:56;95460.75;;;29.48
42119;BMP280;27783;42.782;23.274;2022-08-04T17:26:43;95463.53;;;29.38
42119;BMP280;27783;42.782;23.274;2022-08-04T17:29:28;95469.28;;;29.29
42119;BMP280;27783;42.782;23.274;2022-08-04T17:31:57;95465.34;;;29.19
42119;BMP280;27783;42.782;23.274;2022-08-04T17:34:32;95467.09;;;29.11
42119;BMP280;27783;42.782;23.274;2022-08-04T17:37:02;95466.66;;;29.02
42119;BMP280;27783;42.782;23.274;2022-08-04T17:39:27;95468.66;;;28.91
42119;BMP280;27783;42.782;23.274;2022-08-04T17:41:55;95472.16;;;28.81
42119;BMP280;27783;42.782;23.274;2022-08-04T17:44:38;95475.41;;;28.74
42119;BMP280;27783;42.782;23.274;2022-08-04T17:47:25;95486.47;;;28.65
42119;BMP280;27783;42.782;23.274;2022-08-04T17:50:06;95495.13;;;28.59
42119;BMP280;27783;42.782;23.274;2022-08-04T17:52:35;95493.91;;;28.49
42119;BMP280;27783;42.782;23.274;2022-08-04T17:55:05;95490.00;;;28.39
42119;BMP280;27783;42.782;23.274;2022-08-04T17:57:31;95493.47;;;28.34
42119;BMP280;27783;42.782;23.274;2022-08-04T17:59:59;95491.47;;;28.29
42119;BMP280;27783;42.782;23.274;2022-08-04T18:02:25;95493.22;;;28.22
42119;BMP280;27783;42.782;23.274;2022-08-04T18:04:53;95489.03;;;28.15
42119;BMP280;27783;42.782;23.274;2022-08-04T18:07:37;95490.00;;;28.07
42119;BMP280;27783;42.782;23.274;2022-08-04T18:10:04;95495.44;;;28.02
42119;BMP280;27783;42.782;23.274;2022-08-04T18:12:36;95498.63;;;27.95
42119;BMP280;27783;42.782;23.274;2022-08-04T18:15:07;95503.78;;;27.93
42119;BMP280;27783;42.782;23.274;2022-08-04T18:17:41;95507.72;;;27.87
42119;BMP280;27783;42.782;23.274;2022-08-04T18:20:13;95501.06;;;27.77
42119;BMP280;27783;42.782;23.274;2022-08-04T18:23:03;95507.72;;;27.71
42119;BMP280;27783;42.782;23.274;2022-08-04T18:25:30;95503.00;;;27.66
42119;BMP280;27783;42.782;23.274;2022-08-04T18:27:56;95508.91;;;27.59
42119;BMP280;27783;42.782;23.274;2022-08-04T18:30:25;95511.34;;;27.52
42119;BMP280;27783;42.782;23.274;2022-08-04T18:32:52;95510.56;;;27.46
42119;BMP280;27783;42.782;23.274;2022-08-04T18:35:20;95506.13;;;27.43
42119;BMP280;27783;42.782;23.274;2022-08-04T18:37:45;95509.81;;;27.40
42119;BMP280;27783;42.782;23.274;2022-08-04T18:40:11;95517.44;;;27.31
42119;BMP280;27783;42.782;23.274;2022-08-04T18:42:39;95527.28;;;27.28
42119;BMP280;27783;42.782;23.274;2022-08-04T18:45:05;95523.81;;;27.23
42119;BMP280;27783;42.782;23.274;2022-08-04T18:47:31;95528.44;;;27.17
42119;BMP280;27783;42.782;23.274;2022-08-04T18:49:57;95533.03;;;27.00
42119;BMP280;27783;42.782;23.274;2022-08-04T18:52:22;95537.72;;;27.00
42119;BMP280;27783;42.782;23.274;2022-08-04T18:54:49;95537.66;;;26.94
42119;BMP280;27783;42.782;23.274;2022-08-04T18:57:38;95535.94;;;26.91